createdAt,value
2022-10-05T00:01:15.876Z,13.90
2022-10-05T00:03:43.927Z,13.90
2022-10-05T00:06:13.251Z,13.90
2022-10-05T00:08:41.524Z,13.90
2022-10-05T00:11:10.754Z,13.90
2022-10-05T00:13:38.864Z,13.80
2022-10-05T00:16:14.153Z,13.80
2022-10-05T00:18:43.835Z,13.80
2022-10-05T00:21:19.518Z,13.70
2022-10-05T00:23:50.361Z,13.70
2022-10-05T00:26:21.928Z,13.60
2022-10-05T00:28:50.345Z,13.60
2022-10-05T00:31:22.181Z,13.50
2022-10-05T00:33:50.597Z,13.50
2022-10-05T00:36:18.954Z,13.50
2022-10-05T00:38:47.402Z,13.50
2022-10-05T00:41:19.980Z,13.40
2022-10-05T00:44:06.645Z,13.40
2022-10-05T00:46:45.659Z,13.40
2022-10-05T00:49:23.160Z,13.40
2022-10-05T00:51:59.632Z,13.40
2022-10-05T00:54:35.575Z,13.30
2022-10-05T00:57:26.084Z,13.30
2022-10-05T01:00:04.563Z,13.30
2022-10-05T01:02:43.967Z,13.30
2022-10-05T01:05:17.115Z,13.20
2022-10-05T01:07:52.040Z,13.20
2022-10-05T01:10:27.179Z,13.30
2022-10-05T01:13:04.319Z,13.20
2022-10-05T01:15:37.514Z,13.20
2022-10-05T01:18:13.566Z,13.20
2022-10-05T01:20:52.057Z,13.20
2022-10-05T01:23:38.357Z,13.10
2022-10-05T01:26:25.563Z,13.10
2022-10-05T01:29:03.890Z,13.00
2022-10-05T01:31:42.107Z,13.00
2022-10-05T01:34:15.105Z,13.00
2022-10-05T01:36:51.519Z,13.00
2022-10-05T01:39:28.753Z,13.00
2022-10-05T01:42:11.538Z,13.00
2022-10-05T01:44:47.660Z,13.00
2022-10-05T01:47:22.829Z,13.00
2022-10-05T01:50:01.215Z,13.00
2022-10-05T01:52:42.080Z,12.90
2022-10-05T01:55:19.853Z,12.90
2022-10-05T01:58:02.657Z,12.90
2022-10-05T02:00:38.250Z,12.90
2022-10-05T02:03:10.503Z,12.90
2022-10-05T02:05:44.863Z,12.90
2022-10-05T02:08:17.470Z,12.90
2022-10-05T02:10:54.083Z,12.90
2022-10-05T02:13:28.013Z,12.80
2022-10-05T02:16:02.291Z,12.80
2022-10-05T02:18:45.150Z,12.80
2022-10-05T02:21:13.521Z,12.80
2022-10-05T02:23:44.094Z,12.80
2022-10-05T02:26:13.779Z,12.80
2022-10-05T02:28:48.599Z,12.80
2022-10-05T02:31:22.296Z,12.80
2022-10-05T02:33:50.505Z,12.80
2022-10-05T02:36:23.431Z,12.80
2022-10-05T02:39:01.182Z,12.80
2022-10-05T02:41:43.391Z,12.80
2022-10-05T02:44:20.803Z,12.80
2022-10-05T02:46:59.330Z,12.80
2022-10-05T02:49:33.819Z,12.80
2022-10-05T02:52:10.681Z,12.80
2022-10-05T02:54:50.324Z,12.80
2022-10-05T02:57:29.109Z,12.80
2022-10-05T03:00:04.120Z,12.70
2022-10-05T03:02:42.506Z,12.70
2022-10-05T03:05:20.046Z,12.60
2022-10-05T03:07:56.762Z,12.70
2022-10-05T03:10:31.028Z,12.70
2022-10-05T03:13:06.495Z,12.60
2022-10-05T03:16:00.016Z,12.60
2022-10-05T03:18:41.814Z,12.50
2022-10-05T03:21:22.996Z,12.60
2022-10-05T03:24:08.450Z,12.60
2022-10-05T03:26:46.032Z,12.60
2022-10-05T03:29:26.866Z,12.60
2022-10-05T03:32:01.642Z,12.60
2022-10-05T03:34:37.290Z,12.60
2022-10-05T03:37:10.892Z,12.60
2022-10-05T03:39:43.059Z,12.60
2022-10-05T03:42:20.891Z,12.60
2022-10-05T03:44:56.609Z,12.60
2022-10-05T03:47:35.582Z,12.60
2022-10-05T03:50:29.931Z,12.60
2022-10-05T03:53:02.119Z,12.60
2022-10-05T03:55:36.615Z,12.60
2022-10-05T03:58:11.340Z,12.60
2022-10-05T04:00:43.096Z,12.60
2022-10-05T04:03:17.943Z,12.60
2022-10-05T04:05:51.621Z,12.60
2022-10-05T04:08:24.214Z,12.60
2022-10-05T04:10:55.521Z,12.60
2022-10-05T04:13:29.525Z,12.60
2022-10-05T04:16:02.217Z,12.60
2022-10-05T04:18:35.519Z,12.60
2022-10-05T04:21:11.003Z,12.60
2022-10-05T04:23:51.150Z,12.60
2022-10-05T04:26:23.487Z,12.70
2022-10-05T04:28:58.300Z,12.60
2022-10-05T04:31:48.154Z,12.70
2022-10-05T04:34:35.956Z,12.70
2022-10-05T04:37:09.575Z,12.80
2022-10-05T04:39:49.296Z,12.80
2022-10-05T04:42:24.015Z,12.80
2022-10-05T04:45:19.946Z,12.80
2022-10-05T04:48:05.808Z,12.90
2022-10-05T04:50:47.998Z,12.90
2022-10-05T04:53:25.434Z,13.00
2022-10-05T04:56:00.611Z,13.10
2022-10-05T04:58:44.342Z,13.10
2022-10-05T05:01:29.657Z,13.10
2022-10-05T05:04:09.264Z,13.20
2022-10-05T05:06:42.334Z,13.20
2022-10-05T05:09:34.452Z,13.20
2022-10-05T05:12:19.391Z,13.30
2022-10-05T05:15:22.369Z,13.30
2022-10-05T05:18:06.583Z,13.40
2022-10-05T05:20:48.417Z,13.40
2022-10-05T05:23:25.022Z,13.40
2022-10-05T05:26:06.429Z,13.50
2022-10-05T05:28:43.510Z,13.50
2022-10-05T05:31:18.290Z,13.50
2022-10-05T05:33:56.151Z,13.50
2022-10-05T05:36:49.851Z,13.50
2022-10-05T05:39:25.297Z,13.50
2022-10-05T05:42:02.846Z,13.50
2022-10-05T05:44:38.914Z,13.50
2022-10-05T05:47:18.337Z,13.40
2022-10-05T05:50:05.585Z,13.40
2022-10-05T05:52:42.029Z,13.40
2022-10-05T05:55:18.358Z,13.40
2022-10-05T05:57:54.435Z,13.40
2022-10-05T06:00:25.909Z,13.40
2022-10-05T06:02:59.650Z,13.40
2022-10-05T06:05:33.160Z,13.30
2022-10-05T06:08:07.231Z,13.30
2022-10-05T06:10:43.299Z,13.30
2022-10-05T06:13:18.620Z,13.30
2022-10-05T06:15:51.980Z,13.30
2022-10-05T06:18:22.593Z,13.30
2022-10-05T06:20:55.066Z,13.40
2022-10-05T06:23:26.722Z,13.40
2022-10-05T06:26:16.243Z,13.40
2022-10-05T06:28:51.423Z,13.40
2022-10-05T06:31:32.230Z,13.40
2022-10-05T06:34:07.847Z,13.40
2022-10-05T06:36:44.643Z,13.50
2022-10-05T06:39:29.059Z,13.50
2022-10-05T06:42:13.795Z,13.50
2022-10-05T06:44:53.477Z,13.50
2022-10-05T06:47:31.120Z,13.60
2022-10-05T06:50:10.258Z,13.60
2022-10-05T06:52:51.759Z,13.70
2022-10-05T06:55:25.398Z,13.70
2022-10-05T06:58:03.866Z,13.80
2022-10-05T07:00:41.406Z,13.80
2022-10-05T07:03:23.916Z,13.90
2022-10-05T07:06:11.911Z,13.90
2022-10-05T07:08:53.536Z,14.00
2022-10-05T07:11:34.335Z,14.00
2022-10-05T07:14:23.949Z,14.10
2022-10-05T07:17:18.208Z,14.20
2022-10-05T07:19:56.061Z,14.20
2022-10-05T07:22:45.439Z,14.20
2022-10-05T07:25:17.876Z,14.30
2022-10-05T07:27:52.077Z,14.30
2022-10-05T07:30:20.910Z,14.30
2022-10-05T07:33:00.105Z,14.30
2022-10-05T07:35:58.045Z,14.30
2022-10-05T07:38:32.981Z,14.40
2022-10-05T07:41:07.405Z,14.40
2022-10-05T07:44:01.371Z,14.40
2022-10-05T07:46:40.359Z,14.40
2022-10-05T07:49:20.722Z,14.50
2022-10-05T07:51:52.443Z,14.50
2022-10-05T07:54:26.103Z,14.60
2022-10-05T07:57:00.671Z,14.60
2022-10-05T07:59:35.694Z,14.60
2022-10-05T08:02:12.147Z,14.60
2022-10-05T08:04:48.398Z,14.70
2022-10-05T08:07:18.777Z,14.70
2022-10-05T08:09:54.613Z,14.80
2022-10-05T08:12:33.275Z,14.70
2022-10-05T08:15:06.602Z,14.80
2022-10-05T08:17:42.546Z,14.80
2022-10-05T08:20:32.799Z,14.80
2022-10-05T08:23:06.139Z,14.80
2022-10-05T08:25:46.669Z,14.90
2022-10-05T08:28:23.154Z,14.90
2022-10-05T08:30:58.167Z,14.90
2022-10-05T08:33:31.783Z,14.90
2022-10-05T08:36:07.739Z,15.00
2022-10-05T08:38:36.446Z,15.00
2022-10-05T08:41:46.483Z,15.00
2022-10-05T08:44:55.196Z,15.10
2022-10-05T08:47:41.564Z,15.10
2022-10-05T08:50:20.435Z,15.10
2022-10-05T08:53:18.600Z,15.20
2022-10-05T08:55:59.213Z,15.20
2022-10-05T08:59:06.190Z,15.30
2022-10-05T09:01:48.761Z,15.30
2022-10-05T09:04:27.552Z,15.40
2022-10-05T09:07:16.565Z,15.40
2022-10-05T09:10:20.462Z,15.40
2022-10-05T09:13:18.576Z,15.50
2022-10-05T09:16:17.897Z,15.50
2022-10-05T09:19:19.355Z,15.60
2022-10-05T09:21:58.927Z,15.60
2022-10-05T09:24:47.689Z,15.70
2022-10-05T09:27:18.387Z,15.80
2022-10-05T09:30:19.379Z,15.90
2022-10-05T09:33:33.161Z,15.90
2022-10-05T09:36:24.459Z,16.00
2022-10-05T09:39:44.602Z,16.00
2022-10-05T09:42:36.611Z,16.10
2022-10-05T09:45:36.836Z,16.20
2022-10-05T09:48:25.995Z,16.20
2022-10-05T09:51:40.556Z,16.20
2022-10-05T09:54:52.223Z,16.30
2022-10-05T09:57:56.383Z,16.30
2022-10-05T10:00:29.319Z,16.30
2022-10-05T10:03:26.593Z,16.40
2022-10-05T10:06:13.430Z,16.40
2022-10-05T10:08:50.567Z,16.40
2022-10-05T10:11:34.008Z,16.40
2022-10-05T10:14:31.406Z,16.40
2022-10-05T10:17:13.804Z,16.40
2022-10-05T10:20:07.651Z,16.40
2022-10-05T10:22:58.496Z,16.40
2022-10-05T10:25:43.482Z,16.40
2022-10-05T10:28:37.723Z,16.40
2022-10-05T10:31:24.792Z,16.30
2022-10-05T10:34:15.071Z,16.40
2022-10-05T10:37:03.925Z,16.40
2022-10-05T10:39:45.184Z,16.40
2022-10-05T10:42:38.050Z,16.40
2022-10-05T10:45:38.692Z,16.50
2022-10-05T10:48:31.852Z,16.50
2022-10-05T10:51:15.759Z,16.60
2022-10-05T10:54:29.880Z,16.60
2022-10-05T10:57:06.263Z,16.70
2022-10-05T11:00:06.662Z,16.70
2022-10-05T11:03:01.399Z,16.80
2022-10-05T11:05:52.100Z,16.90
2022-10-05T11:08:47.475Z,16.90
2022-10-05T11:11:30.969Z,17.00
2022-10-05T11:14:37.364Z,17.10
2022-10-05T11:17:29.243Z,17.10
2022-10-05T11:20:09.280Z,17.20
2022-10-05T11:22:53.129Z,17.20
2022-10-05T11:25:35.015Z,17.30
2022-10-05T11:28:27.417Z,17.30
2022-10-05T11:31:23.990Z,17.40
2022-10-05T11:34:13.135Z,17.50
2022-10-05T11:37:20.816Z,17.50
2022-10-05T11:40:08.579Z,17.50
2022-10-05T11:43:20.639Z,17.60
2022-10-05T11:46:03.438Z,17.60
2022-10-05T11:48:49.641Z,17.60
2022-10-05T11:51:42.407Z,17.60
2022-10-05T11:54:28.596Z,17.70
2022-10-05T11:57:02.780Z,17.70
2022-10-05T11:59:44.295Z,17.80
2022-10-05T12:02:39.944Z,17.80
2022-10-05T12:05:18.243Z,17.90
2022-10-05T12:07:57.738Z,18.00
2022-10-05T12:10:35.800Z,18.00
2022-10-05T12:13:14.815Z,18.10
2022-10-05T12:15:54.308Z,18.10
2022-10-05T12:18:41.635Z,18.20
2022-10-05T12:21:18.491Z,18.30
2022-10-05T12:23:53.609Z,18.30
2022-10-05T12:26:27.276Z,18.30
2022-10-05T12:29:02.276Z,18.30
2022-10-05T12:31:41.914Z,18.40
2022-10-05T12:34:20.541Z,18.40
2022-10-05T12:37:10.051Z,18.50
2022-10-05T12:39:45.400Z,18.50
2022-10-05T12:42:26.493Z,18.50
2022-10-05T12:45:14.612Z,18.60
2022-10-05T12:48:00.099Z,18.60
2022-10-05T12:50:31.703Z,18.70
2022-10-05T12:53:25.571Z,18.70
2022-10-05T12:56:02.160Z,18.70
2022-10-05T12:58:38.693Z,18.70
2022-10-05T13:01:15.351Z,18.80
2022-10-05T13:03:53.786Z,18.80
2022-10-05T13:06:30.323Z,18.80
2022-10-05T13:09:10.138Z,18.80
2022-10-05T13:11:44.523Z,18.90
2022-10-05T13:17:19.643Z,18.90
2022-10-05T13:19:56.870Z,19.00
2022-10-05T13:22:35.863Z,19.00
2022-10-05T13:25:25.839Z,19.00
2022-10-05T13:28:10.106Z,19.00
2022-10-05T13:30:40.988Z,19.00
2022-10-05T13:33:18.097Z,19.00
2022-10-05T13:35:54.248Z,19.00
2022-10-05T13:38:34.184Z,19.00
2022-10-05T13:41:11.056Z,19.10
2022-10-05T13:43:43.962Z,19.10
2022-10-05T13:46:22.816Z,19.20
2022-10-05T13:49:00.627Z,19.20
2022-10-05T13:51:39.283Z,19.20
2022-10-05T13:54:16.409Z,19.20
2022-10-05T13:56:47.301Z,19.30
2022-10-05T13:59:23.164Z,19.30
2022-10-05T14:01:58.347Z,19.30
2022-10-05T14:04:29.914Z,19.30
2022-10-05T14:07:22.625Z,19.30
2022-10-05T14:09:51.206Z,19.30
2022-10-05T14:12:24.048Z,19.40
2022-10-05T14:14:56.935Z,19.40
2022-10-05T14:17:40.059Z,19.40
2022-10-05T14:20:23.091Z,19.40
2022-10-05T14:22:57.687Z,19.40
2022-10-05T14:25:25.980Z,19.50
2022-10-05T14:28:02.617Z,19.50
2022-10-05T14:30:32.158Z,19.50
2022-10-05T14:33:15.285Z,19.50
2022-10-05T14:35:49.243Z,19.50
2022-10-05T14:38:22.492Z,19.60
2022-10-05T14:41:16.360Z,19.60
2022-10-05T14:43:53.428Z,19.60
2022-10-05T14:46:29.130Z,19.60
2022-10-05T14:49:15.729Z,19.60
2022-10-05T14:51:44.276Z,19.70
2022-10-05T14:54:29.635Z,19.70
2022-10-05T14:57:08.013Z,19.70
2022-10-05T14:59:55.133Z,19.70
2022-10-05T15:02:53.483Z,19.70
2022-10-05T15:05:31.214Z,19.70
2022-10-05T15:08:08.671Z,19.70
2022-10-05T15:10:44.055Z,19.70
2022-10-05T15:13:17.697Z,19.70
2022-10-05T15:15:54.680Z,19.70
2022-10-05T15:18:34.834Z,19.70
2022-10-05T15:21:29.841Z,19.70
2022-10-05T15:24:03.442Z,19.70
2022-10-05T15:26:43.886Z,19.70
2022-10-05T15:29:38.181Z,19.70
2022-10-05T15:32:17.523Z,19.70
2022-10-05T15:34:55.664Z,19.80
2022-10-05T15:37:28.640Z,19.70
2022-10-05T15:39:59.059Z,19.80
2022-10-05T15:42:36.427Z,19.80
2022-10-05T15:45:11.556Z,19.70
2022-10-05T15:47:48.284Z,19.70
2022-10-05T15:50:23.559Z,19.70
2022-10-05T15:52:57.287Z,19.70
2022-10-05T15:55:36.315Z,19.70
2022-10-05T15:58:26.905Z,19.70
2022-10-05T16:01:04.089Z,19.70
2022-10-05T16:03:45.401Z,19.70
2022-10-05T16:06:47.943Z,19.70
2022-10-05T16:09:38.132Z,19.70
2022-10-05T16:15:17.663Z,19.70
2022-10-05T16:18:15.552Z,19.60
2022-10-05T16:20:51.175Z,19.60
2022-10-05T16:23:33.382Z,19.60
2022-10-05T16:26:16.404Z,19.60
2022-10-05T16:33:04.166Z,19.50
2022-10-05T16:35:44.328Z,19.50
2022-10-05T16:38:26.002Z,19.50
2022-10-05T16:41:10.086Z,19.40
2022-10-05T16:43:49.718Z,19.40
2022-10-05T16:46:27.901Z,19.40
2022-10-05T16:52:42.971Z,19.30
2022-10-05T16:55:15.066Z,19.30
2022-10-05T16:57:48.363Z,19.20
2022-10-05T17:00:21.871Z,19.20
2022-10-05T17:03:18.509Z,19.20
2022-10-05T17:06:23.279Z,19.10
2022-10-05T17:09:27.447Z,19.20
2022-10-05T17:12:04.914Z,19.10
2022-10-05T17:14:40.809Z,19.10
2022-10-05T17:17:32.087Z,19.00
2022-10-05T17:20:19.815Z,19.10
2022-10-05T17:22:52.401Z,19.00
2022-10-05T17:25:35.260Z,19.00
2022-10-05T17:28:21.114Z,19.00
2022-10-05T17:30:53.816Z,18.90
2022-10-05T17:33:25.837Z,18.90
2022-10-05T17:35:56.762Z,18.80
2022-10-05T17:38:41.774Z,18.80
2022-10-05T17:41:30.348Z,18.80
2022-10-05T17:44:24.417Z,18.80
2022-10-05T17:46:55.153Z,18.70
2022-10-05T17:49:36.106Z,18.70
2022-10-05T17:52:38.404Z,18.70
2022-10-05T17:55:30.531Z,18.60
2022-10-05T17:58:21.623Z,18.70
2022-10-05T18:01:26.763Z,18.60
2022-10-05T18:03:56.184Z,18.60
2022-10-05T18:06:44.892Z,18.60
2022-10-05T18:09:50.806Z,18.50
2022-10-05T18:12:41.595Z,18.50
2022-10-05T18:15:46.086Z,18.50
2022-10-05T18:18:34.234Z,18.50
2022-10-05T18:21:27.981Z,18.50
2022-10-05T18:24:18.306Z,18.40
2022-10-05T18:26:59.592Z,18.40
2022-10-05T18:30:06.427Z,18.40
2022-10-05T18:33:10.979Z,18.40
2022-10-05T18:35:52.448Z,18.40
2022-10-05T18:38:39.436Z,18.40
2022-10-05T18:41:19.878Z,18.30
2022-10-05T18:43:57.546Z,18.30
2022-10-05T18:46:36.627Z,18.30
2022-10-05T18:49:20.745Z,18.30
2022-10-05T18:51:57.086Z,18.30
2022-10-05T18:54:40.955Z,18.30
2022-10-05T18:57:44.026Z,18.30
2022-10-05T19:00:17.576Z,18.30
2022-10-05T19:02:51.938Z,18.30
2022-10-05T19:05:47.421Z,18.20
2022-10-05T19:08:29.371Z,18.30
2022-10-05T19:11:05.635Z,18.30
2022-10-05T19:13:43.247Z,18.30
2022-10-05T19:16:26.062Z,18.30
2022-10-05T19:19:10.191Z,18.30
2022-10-05T19:21:47.691Z,18.30
2022-10-05T19:24:32.421Z,18.30
2022-10-05T19:27:09.219Z,18.30
2022-10-05T19:29:56.631Z,18.30
2022-10-05T19:32:32.697Z,18.30
2022-10-05T19:35:13.852Z,18.30
2022-10-05T19:37:52.411Z,18.30
2022-10-05T19:40:29.195Z,18.30
2022-10-05T19:43:14.294Z,18.30
2022-10-05T19:45:46.959Z,18.30
2022-10-05T19:48:27.825Z,18.30
2022-10-05T19:50:58.477Z,18.30
2022-10-05T19:53:30.680Z,18.20
2022-10-05T19:56:17.048Z,18.30
2022-10-05T19:58:45.564Z,18.30
2022-10-05T20:01:24.095Z,18.30
2022-10-05T20:03:53.287Z,18.30
2022-10-05T20:06:22.768Z,18.30
2022-10-05T20:08:54.526Z,18.30
2022-10-05T20:11:27.232Z,18.30
2022-10-05T20:14:20.794Z,18.30
2022-10-05T20:17:07.118Z,18.40
2022-10-05T20:22:40.214Z,18.30
2022-10-05T20:25:30.628Z,18.40
2022-10-05T20:27:58.978Z,18.40
2022-10-05T20:30:28.617Z,18.40
2022-10-05T20:32:59.536Z,18.40
2022-10-05T20:35:30.599Z,18.40
2022-10-05T20:38:00.369Z,18.40
2022-10-05T20:40:31.106Z,18.40
2022-10-05T20:42:59.452Z,18.40
2022-10-05T20:45:27.575Z,18.40
2022-10-05T20:47:55.623Z,18.40
2022-10-05T20:50:23.923Z,18.40
2022-10-05T20:52:52.893Z,18.40
2022-10-05T20:55:20.957Z,18.40
2022-10-05T20:57:50.440Z,18.40
2022-10-05T21:00:18.622Z,18.40
2022-10-05T21:02:46.943Z,18.30
2022-10-05T21:05:15.519Z,18.30
2022-10-05T21:07:43.598Z,18.30
2022-10-05T21:10:14.156Z,18.30
2022-10-05T21:12:42.223Z,18.30
2022-10-05T21:15:12.384Z,18.20
2022-10-05T21:17:40.404Z,18.20
2022-10-05T21:20:11.555Z,18.20
2022-10-05T21:22:39.863Z,18.20
2022-10-05T21:25:08.993Z,18.10
2022-10-05T21:27:37.058Z,18.10
2022-10-05T21:30:05.622Z,18.00
2022-10-05T21:32:35.088Z,18.00
2022-10-05T21:35:03.216Z,18.00
2022-10-05T21:37:31.232Z,17.90
2022-10-05T21:40:11.206Z,18.00
2022-10-05T21:42:39.351Z,17.90
2022-10-05T21:45:08.627Z,17.90
2022-10-05T21:47:38.188Z,17.90
2022-10-05T21:50:08.570Z,17.90
2022-10-05T21:52:37.147Z,17.90
2022-10-05T21:55:06.525Z,17.90
2022-10-05T21:57:36.445Z,17.90
2022-10-05T22:00:05.620Z,17.90
2022-10-05T22:02:33.855Z,17.90
2022-10-05T22:05:03.276Z,18.00
2022-10-05T22:07:31.398Z,18.00
2022-10-05T22:09:59.489Z,18.10
2022-10-05T22:12:28.181Z,18.10
2022-10-05T22:14:56.211Z,18.10
2022-10-05T22:17:27.933Z,18.20
2022-10-05T22:19:56.813Z,18.20
2022-10-05T22:22:27.029Z,18.20
2022-10-05T22:24:55.491Z,18.30
2022-10-05T22:27:25.359Z,18.30
2022-10-05T22:29:53.831Z,18.40
2022-10-05T22:32:22.122Z,18.50
2022-10-05T22:34:50.407Z,18.50
2022-10-05T22:37:18.554Z,18.50
2022-10-05T22:39:48.290Z,18.60
2022-10-05T22:42:16.759Z,18.60
2022-10-05T22:44:44.835Z,18.70
2022-10-05T22:47:12.874Z,18.70
2022-10-05T22:49:40.926Z,18.80
2022-10-05T22:52:09.028Z,18.80
2022-10-05T22:54:37.571Z,18.90
2022-10-05T22:57:07.039Z,19.00
2022-10-05T22:59:35.087Z,19.00
2022-10-05T23:02:03.215Z,19.00
2022-10-05T23:04:31.393Z,19.00
2022-10-05T23:06:59.422Z,19.10
2022-10-05T23:09:27.463Z,19.10
2022-10-05T23:11:55.540Z,19.10
2022-10-05T23:14:48.897Z,19.20
2022-10-05T23:17:21.017Z,19.20
2022-10-05T23:19:49.066Z,19.20
2022-10-05T23:22:17.262Z,19.20
2022-10-05T23:24:45.346Z,19.20
2022-10-05T23:27:13.452Z,19.20
2022-10-05T23:29:42.911Z,19.20
2022-10-05T23:32:11.170Z,19.30
2022-10-05T23:34:42.007Z,19.20
2022-10-05T23:37:10.197Z,19.20
2022-10-05T23:39:38.244Z,19.20
2022-10-05T23:42:06.466Z,19.30
2022-10-05T23:44:34.499Z,19.30
2022-10-05T23:47:04.114Z,19.30
2022-10-05T23:49:32.152Z,19.30
2022-10-05T23:52:00.191Z,19.20
2022-10-05T23:54:28.226Z,19.20
2022-10-05T23:56:56.263Z,19.20
2022-10-05T23:59:24.351Z,19.10
